Aeroporto :
LOGIN :

Iscrizione | Disclaimer

   EN    FR    IT 

 










Sommario :    VFR   VFR Marginale   IFR   IFR Intensivo   IFR Molto Intensivo
Visibilità : 
Base nubi : 
>= 8 km
>= 3000ft
5 / 8 km
1000 / 3000 ft
1500m / 5 km
500 / 1000 ft
800 / 1500m
200 / 500 ft
< 800m
< 200 ft
Simboli :   Temporali  Nebbia  Neve Forte  Precipitazioni Forti  Vento > 20 kt
SIGMETs :   Varie  Temporali  Ghiacco  Turbolenza  Onda orograficha  Ceneri Vulcaniche






- Altitudine del aeroporto : 49 ft
- Codice IATA : GLZ


EHGR - Gilze-Rijen Airbase

ULTIMO METAR :
  • 060255Z AUTO 14005KT 9999 NCD 10/01 Q1015 BLU

METARs OBSOLETI :
  • 060225Z AUTO 14006KT 9999 NCD 10/01 Q1015 BLU
  • 060155Z AUTO 14006KT 9999 NCD 10/01 Q1015 BLU
  • 060125Z AUTO 14007KT 9999 NCD 11/01 Q1015 BLU
  • 060055Z AUTO 13006KT 9999 NCD 11/01 Q1015 BLU
  • 060025Z AUTO 14007KT 9999 NCD 12/01 Q1015 BLU
  • 052355Z AUTO 14008KT 9999 NCD 12/01 Q1015 BLU

Previsioni scadute.



MetMap, La meteo Aeronautica in un colpo d'occhio ! - Copyright ORBIFLY Dicembre 2007 - Disclaimer

ORBIFLY MET'MAP TEAM :

Programmazione e sviluppo : Alexandra Zaïnal
Concezione : Baudouin d'Aumeries
Aiuto per la programmazione : Marc-Olivier Méhu
Supporto tecnico e logistico : Manuel Goepfert
Aiuto per la traduzione : Arnaldo La Scala

Contatto : metmap@orbifly.com




FONTI E CREDITI :

   NOAA